sensor_id;sensor_type;location;lat;lon;timestamp;P1;durP1;ratioP1;P2;durP2;ratioP2
53253;SDS011;39148;53.332;6.922;2022-12-11T00:00:00;19.80;;;11.10;;
53253;SDS011;39148;53.332;6.922;2022-12-11T00:02:27;18.98;;;10.57;;
53253;SDS011;39148;53.332;6.922;2022-12-11T00:04:53;18.30;;;10.90;;
53253;SDS011;39148;53.332;6.922;2022-12-11T00:07:20;19.48;;;10.68;;
53253;SDS011;39148;53.332;6.922;2022-12-11T00:09:45;19.77;;;11.18;;
53253;SDS011;39148;53.332;6.922;2022-12-11T00:12:11;20.00;;;11.00;;
53253;SDS011;39148;53.332;6.922;2022-12-11T00:14:36;21.30;;;11.45;;
53253;SDS011;39148;53.332;6.922;2022-12-11T00:17:02;18.33;;;10.93;;
53253;SDS011;39148;53.332;6.922;2022-12-11T00:19:28;18.35;;;10.35;;
53253;SDS011;39148;53.332;6.922;2022-12-11T00:21:54;19.15;;;11.00;;
53253;SDS011;39148;53.332;6.922;2022-12-11T00:24:21;18.55;;;10.43;;
53253;SDS011;39148;53.332;6.922;2022-12-11T00:26:47;19.77;;;11.48;;
53253;SDS011;39148;53.332;6.922;2022-12-11T00:29:13;18.05;;;10.10;;
53253;SDS011;39148;53.332;6.922;2022-12-11T00:31:41;20.02;;;10.68;;
53253;SDS011;39148;53.332;6.922;2022-12-11T00:34:08;20.70;;;10.55;;
53253;SDS011;39148;53.332;6.922;2022-12-11T00:36:36;18.20;;;9.48;;
53253;SDS011;39148;53.332;6.922;2022-12-11T00:39:02;20.17;;;10.75;;
53253;SDS011;39148;53.332;6.922;2022-12-11T00:41:28;18.33;;;10.82;;
53253;SDS011;39148;53.332;6.922;2022-12-11T00:43:55;17.83;;;10.23;;
53253;SDS011;39148;53.332;6.922;2022-12-11T00:46:20;20.10;;;11.05;;
53253;SDS011;39148;53.332;6.922;2022-12-11T00:48:46;17.88;;;10.55;;
53253;SDS011;39148;53.332;6.922;2022-12-11T00:51:14;19.80;;;11.25;;
53253;SDS011;39148;53.332;6.922;2022-12-11T00:53:40;19.10;;;10.57;;
53253;SDS011;39148;53.332;6.922;2022-12-11T00:56:10;19.65;;;10.10;;
53253;SDS011;39148;53.332;6.922;2022-12-11T00:58:36;18.27;;;10.52;;
53253;SDS011;39148;53.332;6.922;2022-12-11T01:01:07;17.20;;;10.00;;
53253;SDS011;39148;53.332;6.922;2022-12-11T01:03:33;18.07;;;10.27;;
53253;SDS011;39148;53.332;6.922;2022-12-11T01:05:59;19.20;;;10.57;;
53253;SDS011;39148;53.332;6.922;2022-12-11T01:08:25;18.52;;;10.27;;
53253;SDS011;39148;53.332;6.922;2022-12-11T01:10:50;19.98;;;10.85;;
53253;SDS011;39148;53.332;6.922;2022-12-11T01:13:16;19.63;;;11.10;;
53253;SDS011;39148;53.332;6.922;2022-12-11T01:15:43;20.02;;;10.88;;
53253;SDS011;39148;53.332;6.922;2022-12-11T01:18:10;17.63;;;10.13;;
53253;SDS011;39148;53.332;6.922;2022-12-11T01:20:37;18.70;;;10.55;;
53253;SDS011;39148;53.332;6.922;2022-12-11T01:23:04;18.77;;;10.20;;
53253;SDS011;39148;53.332;6.922;2022-12-11T01:25:30;19.90;;;10.65;;
53253;SDS011;39148;53.332;6.922;2022-12-11T01:27:57;17.52;;;10.43;;
53253;SDS011;39148;53.332;6.922;2022-12-11T01:30:23;18.15;;;10.30;;
53253;SDS011;39148;53.332;6.922;2022-12-11T01:32:50;17.02;;;9.73;;
53253;SDS011;39148;53.332;6.922;2022-12-11T01:35:16;17.63;;;10.25;;
53253;SDS011;39148;53.332;6.922;2022-12-11T01:37:43;17.73;;;9.80;;
53253;SDS011;39148;53.332;6.922;2022-12-11T01:40:10;16.33;;;9.40;;
53253;SDS011;39148;53.332;6.922;2022-12-11T01:42:36;18.38;;;10.18;;
53253;SDS011;39148;53.332;6.922;2022-12-11T01:48:07;19.08;;;10.10;;
53253;SDS011;39148;53.332;6.922;2022-12-11T01:50:35;17.77;;;9.68;;
53253;SDS011;39148;53.332;6.922;2022-12-11T01:53:03;17.10;;;10.48;;
53253;SDS011;39148;53.332;6.922;2022-12-11T01:55:31;18.80;;;10.57;;
53253;SDS011;39148;53.332;6.922;2022-12-11T01:57:57;18.48;;;9.90;;
53253;SDS011;39148;53.332;6.922;2022-12-11T02:00:23;16.70;;;9.50;;
53253;SDS011;39148;53.332;6.922;2022-12-11T02:02:50;18.08;;;9.85;;
53253;SDS011;39148;53.332;6.922;2022-12-11T02:05:16;17.77;;;10.48;;
53253;SDS011;39148;53.332;6.922;2022-12-11T02:07:49;16.58;;;9.52;;
53253;SDS011;39148;53.332;6.922;2022-12-11T02:10:16;17.83;;;9.63;;
53253;SDS011;39148;53.332;6.922;2022-12-11T02:12:58;17.63;;;9.93;;
53253;SDS011;39148;53.332;6.922;2022-12-11T02:20:28;15.50;;;8.93;;
53253;SDS011;39148;53.332;6.922;2022-12-11T02:30:38;18.55;;;9.57;;
53253;SDS011;39148;53.332;6.922;2022-12-11T02:33:05;16.95;;;9.15;;
53253;SDS011;39148;53.332;6.922;2022-12-11T02:35:33;17.60;;;9.20;;
53253;SDS011;39148;53.332;6.922;2022-12-11T02:38:09;18.33;;;10.02;;
53253;SDS011;39148;53.332;6.922;2022-12-11T02:40:37;15.43;;;8.38;;
53253;SDS011;39148;53.332;6.922;2022-12-11T02:43:05;15.90;;;8.68;;
53253;SDS011;39148;53.332;6.922;2022-12-11T02:45:34;17.77;;;10.10;;
53253;SDS011;39148;53.332;6.922;2022-12-11T02:48:02;16.60;;;8.55;;
53253;SDS011;39148;53.332;6.922;2022-12-11T02:50:28;17.83;;;9.15;;
53253;SDS011;39148;53.332;6.922;2022-12-11T02:52:55;17.58;;;8.88;;
53253;SDS011;39148;53.332;6.922;2022-12-11T02:55:23;18.38;;;8.98;;
53253;SDS011;39148;53.332;6.922;2022-12-11T02:57:56;17.17;;;9.75;;
53253;SDS011;39148;53.332;6.922;2022-12-11T03:00:24;16.63;;;9.38;;
53253;SDS011;39148;53.332;6.922;2022-12-11T03:02:50;15.02;;;8.55;;
53253;SDS011;39148;53.332;6.922;2022-12-11T03:05:16;16.10;;;8.82;;
53253;SDS011;39148;53.332;6.922;2022-12-11T03:07:43;15.95;;;9.02;;
53253;SDS011;39148;53.332;6.922;2022-12-11T03:10:10;16.00;;;9.18;;
53253;SDS011;39148;53.332;6.922;2022-12-11T03:12:39;17.83;;;9.48;;
53253;SDS011;39148;53.332;6.922;2022-12-11T03:15:08;16.48;;;9.20;;
53253;SDS011;39148;53.332;6.922;2022-12-11T03:20:23;15.63;;;8.93;;
53253;SDS011;39148;53.332;6.922;2022-12-11T03:23:07;18.05;;;9.45;;
53253;SDS011;39148;53.332;6.922;2022-12-11T03:25:51;14.48;;;8.38;;
53253;SDS011;39148;53.332;6.922;2022-12-11T03:28:28;15.90;;;8.45;;
53253;SDS011;39148;53.332;6.922;2022-12-11T03:30:56;15.68;;;8.52;;
53253;SDS011;39148;53.332;6.922;2022-12-11T03:33:27;14.32;;;8.45;;
53253;SDS011;39148;53.332;6.922;2022-12-11T03:35:55;14.82;;;7.97;;
53253;SDS011;39148;53.332;6.922;2022-12-11T03:38:27;15.93;;;8.20;;
53253;SDS011;39148;53.332;6.922;2022-12-11T03:40:55;15.98;;;8.80;;
53253;SDS011;39148;53.332;6.922;2022-12-11T03:43:24;16.08;;;9.32;;
53253;SDS011;39148;53.332;6.922;2022-12-11T03:45:51;17.27;;;8.93;;
53253;SDS011;39148;53.332;6.922;2022-12-11T03:48:18;17.65;;;9.32;;
53253;SDS011;39148;53.332;6.922;2022-12-11T03:50:45;15.70;;;8.65;;
53253;SDS011;39148;53.332;6.922;2022-12-11T03:53:12;15.73;;;8.90;;
53253;SDS011;39148;53.332;6.922;2022-12-11T03:55:39;15.93;;;8.52;;
53253;SDS011;39148;53.332;6.922;2022-12-11T03:58:06;15.63;;;8.15;;
53253;SDS011;39148;53.332;6.922;2022-12-11T04:00:32;15.32;;;8.30;;
53253;SDS011;39148;53.332;6.922;2022-12-11T04:02:58;18.05;;;9.55;;
53253;SDS011;39148;53.332;6.922;2022-12-11T04:08:09;16.98;;;8.70;;
53253;SDS011;39148;53.332;6.922;2022-12-11T04:10:35;15.82;;;8.48;;
53253;SDS011;39148;53.332;6.922;2022-12-11T04:13:00;17.27;;;8.35;;
53253;SDS011;39148;53.332;6.922;2022-12-11T04:15:26;15.75;;;8.18;;
53253;SDS011;39148;53.332;6.922;2022-12-11T04:17:52;18.27;;;9.50;;
53253;SDS011;39148;53.332;6.922;2022-12-11T04:20:38;16.65;;;8.75;;
53253;SDS011;39148;53.332;6.922;2022-12-11T04:23:23;16.38;;;8.75;;
53253;SDS011;39148;53.332;6.922;2022-12-11T04:26:12;15.93;;;8.68;;
53253;SDS011;39148;53.332;6.922;2022-12-11T04:28:39;17.33;;;8.65;;
53253;SDS011;39148;53.332;6.922;2022-12-11T04:31:05;17.10;;;9.32;;
53253;SDS011;39148;53.332;6.922;2022-12-11T04:33:31;14.80;;;8.23;;
53253;SDS011;39148;53.332;6.922;2022-12-11T04:35:58;15.25;;;8.52;;
53253;SDS011;39148;53.332;6.922;2022-12-11T04:38:24;16.55;;;8.65;;
53253;SDS011;39148;53.332;6.922;2022-12-11T04:40:56;16.95;;;8.10;;
53253;SDS011;39148;53.332;6.922;2022-12-11T04:43:22;16.10;;;8.40;;
53253;SDS011;39148;53.332;6.922;2022-12-11T04:45:48;16.13;;;8.55;;
53253;SDS011;39148;53.332;6.922;2022-12-11T04:48:13;17.13;;;8.75;;
53253;SDS011;39148;53.332;6.922;2022-12-11T04:50:39;17.27;;;8.75;;
53253;SDS011;39148;53.332;6.922;2022-12-11T04:53:05;14.57;;;8.43;;
53253;SDS011;39148;53.332;6.922;2022-12-11T04:55:31;16.60;;;8.50;;
53253;SDS011;39148;53.332;6.922;2022-12-11T04:57:57;16.05;;;9.07;;
53253;SDS011;39148;53.332;6.922;2022-12-11T05:00:23;15.60;;;8.18;;
53253;SDS011;39148;53.332;6.922;2022-12-11T05:02:49;16.60;;;8.43;;
53253;SDS011;39148;53.332;6.922;2022-12-11T05:05:14;15.60;;;8.20;;
53253;SDS011;39148;53.332;6.922;2022-12-11T05:07:41;18.10;;;9.27;;
53253;SDS011;39148;53.332;6.922;2022-12-11T05:10:07;18.00;;;8.82;;
53253;SDS011;39148;53.332;6.922;2022-12-11T05:12:33;16.35;;;8.38;;
53253;SDS011;39148;53.332;6.922;2022-12-11T05:14:59;17.05;;;8.85;;
53253;SDS011;39148;53.332;6.922;2022-12-11T05:17:25;17.00;;;8.63;;
53253;SDS011;39148;53.332;6.922;2022-12-11T05:19:51;17.13;;;8.25;;
53253;SDS011;39148;53.332;6.922;2022-12-11T05:22:18;16.67;;;8.32;;
53253;SDS011;39148;53.332;6.922;2022-12-11T05:24:44;15.55;;;7.90;;
53253;SDS011;39148;53.332;6.922;2022-12-11T05:27:10;14.40;;;8.18;;
53253;SDS011;39148;53.332;6.922;2022-12-11T05:29:36;18.38;;;9.18;;
53253;SDS011;39148;53.332;6.922;2022-12-11T05:32:02;18.50;;;9.25;;
53253;SDS011;39148;53.332;6.922;2022-12-11T05:34:28;16.55;;;8.40;;
53253;SDS011;39148;53.332;6.922;2022-12-11T05:36:54;19.77;;;9.13;;
53253;SDS011;39148;53.332;6.922;2022-12-11T05:39:20;15.85;;;8.38;;
53253;SDS011;39148;53.332;6.922;2022-12-11T05:41:46;16.65;;;8.63;;
53253;SDS011;39148;53.332;6.922;2022-12-11T05:44:13;18.00;;;8.93;;
53253;SDS011;39148;53.332;6.922;2022-12-11T05:46:39;16.65;;;8.65;;
53253;SDS011;39148;53.332;6.922;2022-12-11T05:49:05;16.65;;;8.32;;
53253;SDS011;39148;53.332;6.922;2022-12-11T05:51:32;16.65;;;8.50;;
53253;SDS011;39148;53.332;6.922;2022-12-11T05:53:58;16.38;;;8.95;;
53253;SDS011;39148;53.332;6.922;2022-12-11T05:56:28;19.05;;;9.20;;
53253;SDS011;39148;53.332;6.922;2022-12-11T05:58:56;16.77;;;8.63;;
53253;SDS011;39148;53.332;6.922;2022-12-11T06:01:24;18.65;;;8.80;;
53253;SDS011;39148;53.332;6.922;2022-12-11T06:03:50;16.77;;;9.15;;
53253;SDS011;39148;53.332;6.922;2022-12-11T06:06:16;15.98;;;8.60;;
53253;SDS011;39148;53.332;6.922;2022-12-11T06:08:42;16.20;;;8.60;;
53253;SDS011;39148;53.332;6.922;2022-12-11T06:11:10;18.88;;;8.43;;
53253;SDS011;39148;53.332;6.922;2022-12-11T06:13:37;20.17;;;9.85;;
53253;SDS011;39148;53.332;6.922;2022-12-11T06:16:04;17.35;;;8.45;;
53253;SDS011;39148;53.332;6.922;2022-12-11T06:18:31;15.60;;;8.25;;
53253;SDS011;39148;53.332;6.922;2022-12-11T06:21:00;19.42;;;9.77;;
53253;SDS011;39148;53.332;6.922;2022-12-11T06:23:26;19.17;;;9.30;;
53253;SDS011;39148;53.332;6.922;2022-12-11T06:25:52;17.13;;;8.27;;
53253;SDS011;39148;53.332;6.922;2022-12-11T06:28:18;18.42;;;9.10;;
53253;SDS011;39148;53.332;6.922;2022-12-11T06:30:44;17.42;;;8.55;;
53253;SDS011;39148;53.332;6.922;2022-12-11T06:33:10;19.30;;;9.57;;
53253;SDS011;39148;53.332;6.922;2022-12-11T06:35:37;16.10;;;8.57;;
53253;SDS011;39148;53.332;6.922;2022-12-11T06:38:03;16.35;;;8.57;;
53253;SDS011;39148;53.332;6.922;2022-12-11T06:40:29;17.73;;;9.07;;
53253;SDS011;39148;53.332;6.922;2022-12-11T06:42:54;17.67;;;9.20;;
53253;SDS011;39148;53.332;6.922;2022-12-11T06:45:20;15.73;;;8.10;;
53253;SDS011;39148;53.332;6.922;2022-12-11T06:47:46;16.05;;;8.27;;
53253;SDS011;39148;53.332;6.922;2022-12-11T06:50:12;17.15;;;9.15;;
53253;SDS011;39148;53.332;6.922;2022-12-11T06:52:38;18.67;;;9.00;;
53253;SDS011;39148;53.332;6.922;2022-12-11T06:55:04;19.42;;;9.90;;
53253;SDS011;39148;53.332;6.922;2022-12-11T06:57:30;18.13;;;9.30;;
53253;SDS011;39148;53.332;6.922;2022-12-11T06:59:56;18.15;;;9.27;;
53253;SDS011;39148;53.332;6.922;2022-12-11T07:02:22;16.52;;;9.15;;
53253;SDS011;39148;53.332;6.922;2022-12-11T07:04:48;16.50;;;9.27;;
53253;SDS011;39148;53.332;6.922;2022-12-11T07:07:14;15.93;;;8.52;;
53253;SDS011;39148;53.332;6.922;2022-12-11T07:09:41;16.08;;;8.55;;
53253;SDS011;39148;53.332;6.922;2022-12-11T07:12:07;17.77;;;9.77;;
53253;SDS011;39148;53.332;6.922;2022-12-11T07:14:33;18.15;;;9.32;;
53253;SDS011;39148;53.332;6.922;2022-12-11T07:16:59;20.20;;;9.52;;
53253;SDS011;39148;53.332;6.922;2022-12-11T07:19:25;20.20;;;9.43;;
53253;SDS011;39148;53.332;6.922;2022-12-11T07:21:51;16.52;;;9.27;;
53253;SDS011;39148;53.332;6.922;2022-12-11T07:24:17;19.85;;;9.90;;
53253;SDS011;39148;53.332;6.922;2022-12-11T07:26:43;17.73;;;9.35;;
53253;SDS011;39148;53.332;6.922;2022-12-11T07:29:09;18.73;;;9.48;;
53253;SDS011;39148;53.332;6.922;2022-12-11T07:31:35;17.85;;;9.15;;
53253;SDS011;39148;53.332;6.922;2022-12-11T07:34:02;19.40;;;9.82;;
53253;SDS011;39148;53.332;6.922;2022-12-11T07:36:29;21.67;;;9.30;;
53253;SDS011;39148;53.332;6.922;2022-12-11T07:38:55;18.17;;;9.00;;
53253;SDS011;39148;53.332;6.922;2022-12-11T07:41:21;18.92;;;9.75;;
53253;SDS011;39148;53.332;6.922;2022-12-11T07:43:48;19.70;;;9.63;;
53253;SDS011;39148;53.332;6.922;2022-12-11T07:46:14;17.38;;;9.07;;
53253;SDS011;39148;53.332;6.922;2022-12-11T07:48:41;18.17;;;9.45;;
53253;SDS011;39148;53.332;6.922;2022-12-11T07:51:11;19.52;;;9.65;;
53253;SDS011;39148;53.332;6.922;2022-12-11T07:53:45;21.58;;;9.38;;
53253;SDS011;39148;53.332;6.922;2022-12-11T07:56:11;18.90;;;9.97;;
53253;SDS011;39148;53.332;6.922;2022-12-11T07:58:38;17.55;;;9.57;;
53253;SDS011;39148;53.332;6.922;2022-12-11T08:01:25;20.25;;;10.90;;
53253;SDS011;39148;53.332;6.922;2022-12-11T08:03:51;22.52;;;10.30;;
53253;SDS011;39148;53.332;6.922;2022-12-11T08:06:17;19.75;;;10.93;;
53253;SDS011;39148;53.332;6.922;2022-12-11T08:08:45;21.90;;;10.00;;
53253;SDS011;39148;53.332;6.922;2022-12-11T08:11:12;18.98;;;9.80;;
53253;SDS011;39148;53.332;6.922;2022-12-11T08:13:39;18.02;;;9.18;;
53253;SDS011;39148;53.332;6.922;2022-12-11T08:16:06;19.33;;;9.23;;
53253;SDS011;39148;53.332;6.922;2022-12-11T08:18:33;18.33;;;9.82;;
53253;SDS011;39148;53.332;6.922;2022-12-11T08:21:06;19.83;;;10.02;;
53253;SDS011;39148;53.332;6.922;2022-12-11T08:23:33;18.75;;;9.93;;
53253;SDS011;39148;53.332;6.922;2022-12-11T08:26:01;19.95;;;9.80;;
53253;SDS011;39148;53.332;6.922;2022-12-11T08:28:27;20.65;;;9.70;;
53253;SDS011;39148;53.332;6.922;2022-12-11T08:30:53;19.95;;;9.68;;
53253;SDS011;39148;53.332;6.922;2022-12-11T08:33:19;17.98;;;9.45;;
53253;SDS011;39148;53.332;6.922;2022-12-11T08:35:46;19.88;;;10.02;;
53253;SDS011;39148;53.332;6.922;2022-12-11T08:38:12;19.25;;;9.77;;
53253;SDS011;39148;53.332;6.922;2022-12-11T08:40:38;18.92;;;9.52;;
53253;SDS011;39148;53.332;6.922;2022-12-11T08:43:04;17.88;;;9.27;;
53253;SDS011;39148;53.332;6.922;2022-12-11T08:45:30;18.92;;;9.20;;
53253;SDS011;39148;53.332;6.922;2022-12-11T08:47:57;18.20;;;9.45;;
53253;SDS011;39148;53.332;6.922;2022-12-11T08:50:23;20.27;;;9.75;;
53253;SDS011;39148;53.332;6.922;2022-12-11T08:52:49;19.73;;;9.40;;
53253;SDS011;39148;53.332;6.922;2022-12-11T08:55:15;18.88;;;9.10;;
53253;SDS011;39148;53.332;6.922;2022-12-11T08:57:41;17.13;;;9.60;;
53253;SDS011;39148;53.332;6.922;2022-12-11T09:00:08;19.10;;;9.80;;
53253;SDS011;39148;53.332;6.922;2022-12-11T09:02:36;19.20;;;9.43;;
53253;SDS011;39148;53.332;6.922;2022-12-11T09:05:02;19.02;;;9.32;;
53253;SDS011;39148;53.332;6.922;2022-12-11T09:07:32;18.58;;;9.35;;
53253;SDS011;39148;53.332;6.922;2022-12-11T09:09:58;18.75;;;8.98;;
53253;SDS011;39148;53.332;6.922;2022-12-11T09:12:25;17.38;;;9.45;;
53253;SDS011;39148;53.332;6.922;2022-12-11T09:14:51;17.95;;;9.60;;
53253;SDS011;39148;53.332;6.922;2022-12-11T09:17:17;18.38;;;9.23;;
53253;SDS011;39148;53.332;6.922;2022-12-11T09:19:43;17.10;;;8.82;;
53253;SDS011;39148;53.332;6.922;2022-12-11T09:22:09;20.65;;;10.30;;
53253;SDS011;39148;53.332;6.922;2022-12-11T09:24:36;16.95;;;8.85;;
53253;SDS011;39148;53.332;6.922;2022-12-11T09:27:04;17.77;;;8.80;;
53253;SDS011;39148;53.332;6.922;2022-12-11T09:29:30;18.52;;;9.48;;
53253;SDS011;39148;53.332;6.922;2022-12-11T09:31:57;17.38;;;8.50;;
53253;SDS011;39148;53.332;6.922;2022-12-11T09:34:23;18.77;;;8.52;;
53253;SDS011;39148;53.332;6.922;2022-12-11T09:36:48;16.15;;;8.25;;
53253;SDS011;39148;53.332;6.922;2022-12-11T09:39:15;18.85;;;8.85;;
53253;SDS011;39148;53.332;6.922;2022-12-11T09:41:51;16.83;;;7.93;;
53253;SDS011;39148;53.332;6.922;2022-12-11T09:44:52;19.20;;;8.70;;
53253;SDS011;39148;53.332;6.922;2022-12-11T09:50:02;16.45;;;8.93;;
53253;SDS011;39148;53.332;6.922;2022-12-11T09:52:33;18.83;;;9.18;;
53253;SDS011;39148;53.332;6.922;2022-12-11T09:55:19;16.63;;;8.32;;
53253;SDS011;39148;53.332;6.922;2022-12-11T09:58:05;18.95;;;9.13;;
53253;SDS011;39148;53.332;6.922;2022-12-11T10:00:37;16.67;;;8.15;;
53253;SDS011;39148;53.332;6.922;2022-12-11T10:05:49;18.13;;;8.75;;
53253;SDS011;39148;53.332;6.922;2022-12-11T10:18:14;16.85;;;8.00;;
53253;SDS011;39148;53.332;6.922;2022-12-11T10:20:45;15.38;;;8.75;;
53253;SDS011;39148;53.332;6.922;2022-12-11T10:23:22;16.50;;;8.07;;
53253;SDS011;39148;53.332;6.922;2022-12-11T10:25:52;17.80;;;8.93;;
53253;SDS011;39148;53.332;6.922;2022-12-11T10:28:19;15.63;;;8.40;;
53253;SDS011;39148;53.332;6.922;2022-12-11T10:31:33;15.43;;;7.30;;
53253;SDS011;39148;53.332;6.922;2022-12-11T10:33:33;17.60;;;9.15;;
53253;SDS011;39148;53.332;6.922;2022-12-11T10:36:14;17.75;;;8.68;;
53253;SDS011;39148;53.332;6.922;2022-12-11T10:38:43;15.80;;;9.13;;
53253;SDS011;39148;53.332;6.922;2022-12-11T10:41:11;18.90;;;9.07;;
53253;SDS011;39148;53.332;6.922;2022-12-11T10:43:39;18.02;;;8.38;;
53253;SDS011;39148;53.332;6.922;2022-12-11T10:46:11;16.63;;;8.20;;
53253;SDS011;39148;53.332;6.922;2022-12-11T10:48:48;16.30;;;8.90;;
53253;SDS011;39148;53.332;6.922;2022-12-11T10:51:14;17.60;;;8.77;;
53253;SDS011;39148;53.332;6.922;2022-12-11T10:53:41;17.70;;;8.57;;
53253;SDS011;39148;53.332;6.922;2022-12-11T10:56:08;17.75;;;9.02;;
53253;SDS011;39148;53.332;6.922;2022-12-11T10:58:36;14.43;;;7.78;;
53253;SDS011;39148;53.332;6.922;2022-12-11T11:03:29;17.95;;;8.60;;
53253;SDS011;39148;53.332;6.922;2022-12-11T11:08:36;17.13;;;8.55;;
53253;SDS011;39148;53.332;6.922;2022-12-11T11:11:05;15.85;;;8.70;;
53253;SDS011;39148;53.332;6.922;2022-12-11T11:13:33;16.20;;;8.63;;
53253;SDS011;39148;53.332;6.922;2022-12-11T11:18:26;17.05;;;8.38;;
53253;SDS011;39148;53.332;6.922;2022-12-11T11:20:53;17.90;;;9.30;;
53253;SDS011;39148;53.332;6.922;2022-12-11T11:23:20;17.10;;;8.32;;
53253;SDS011;39148;53.332;6.922;2022-12-11T11:25:50;17.15;;;9.15;;
53253;SDS011;39148;53.332;6.922;2022-12-11T11:28:21;19.42;;;9.68;;
53253;SDS011;39148;53.332;6.922;2022-12-11T11:33:21;16.70;;;8.90;;
53253;SDS011;39148;53.332;6.922;2022-12-11T11:35:51;18.98;;;9.48;;
53253;SDS011;39148;53.332;6.922;2022-12-11T11:38:18;19.38;;;9.27;;
53253;SDS011;39148;53.332;6.922;2022-12-11T11:40:54;20.40;;;9.60;;
53253;SDS011;39148;53.332;6.922;2022-12-11T11:48:50;19.05;;;9.75;;
53253;SDS011;39148;53.332;6.922;2022-12-11T11:51:29;18.63;;;9.35;;
53253;SDS011;39148;53.332;6.922;2022-12-11T11:53:57;18.52;;;9.38;;
53253;SDS011;39148;53.332;6.922;2022-12-11T11:56:29;20.92;;;10.18;;
53253;SDS011;39148;53.332;6.922;2022-12-11T12:01:30;18.52;;;9.43;;
53253;SDS011;39148;53.332;6.922;2022-12-11T12:03:56;20.00;;;9.88;;
53253;SDS011;39148;53.332;6.922;2022-12-11T12:19:02;18.75;;;9.60;;
53253;SDS011;39148;53.332;6.922;2022-12-11T12:21:36;21.20;;;10.52;;
53253;SDS011;39148;53.332;6.922;2022-12-11T12:26:50;17.92;;;9.65;;
53253;SDS011;39148;53.332;6.922;2022-12-11T12:32:07;18.98;;;9.70;;
53253;SDS011;39148;53.332;6.922;2022-12-11T12:45:23;19.77;;;9.45;;
53253;SDS011;39148;53.332;6.922;2022-12-11T12:47:49;18.80;;;9.55;;
53253;SDS011;39148;53.332;6.922;2022-12-11T12:50:16;16.73;;;9.30;;
53253;SDS011;39148;53.332;6.922;2022-12-11T12:52:43;18.58;;;9.90;;
53253;SDS011;39148;53.332;6.922;2022-12-11T13:02:52;18.02;;;9.45;;
53253;SDS011;39148;53.332;6.922;2022-12-11T13:05:24;18.38;;;10.15;;
53253;SDS011;39148;53.332;6.922;2022-12-11T13:07:52;13.85;;;7.45;;
53253;SDS011;39148;53.332;6.922;2022-12-11T13:12:48;16.15;;;9.48;;
53253;SDS011;39148;53.332;6.922;2022-12-11T13:17:59;18.63;;;9.55;;
53253;SDS011;39148;53.332;6.922;2022-12-11T13:20:27;19.48;;;10.00;;
53253;SDS011;39148;53.332;6.922;2022-12-11T13:26:02;18.27;;;9.82;;
53253;SDS011;39148;53.332;6.922;2022-12-11T13:28:49;18.23;;;10.05;;
53253;SDS011;39148;53.332;6.922;2022-12-11T13:33:42;19.30;;;9.57;;
53253;SDS011;39148;53.332;6.922;2022-12-11T13:38:36;19.67;;;10.02;;
53253;SDS011;39148;53.332;6.922;2022-12-11T13:41:04;19.17;;;10.40;;
53253;SDS011;39148;53.332;6.922;2022-12-11T13:43:34;19.80;;;9.38;;
53253;SDS011;39148;53.332;6.922;2022-12-11T13:46:02;18.58;;;9.82;;
53253;SDS011;39148;53.332;6.922;2022-12-11T13:48:32;18.80;;;10.32;;
53253;SDS011;39148;53.332;6.922;2022-12-11T13:50:59;18.95;;;9.52;;
53253;SDS011;39148;53.332;6.922;2022-12-11T13:53:26;18.15;;;9.90;;
53253;SDS011;39148;53.332;6.922;2022-12-11T13:55:59;19.50;;;10.05;;
53253;SDS011;39148;53.332;6.922;2022-12-11T13:58:26;19.65;;;10.75;;
53253;SDS011;39148;53.332;6.922;2022-12-11T14:00:53;17.77;;;10.13;;
53253;SDS011;39148;53.332;6.922;2022-12-11T14:03:21;17.92;;;9.73;;
53253;SDS011;39148;53.332;6.922;2022-12-11T14:05:48;19.70;;;10.90;;
53253;SDS011;39148;53.332;6.922;2022-12-11T14:08:19;18.83;;;10.13;;
53253;SDS011;39148;53.332;6.922;2022-12-11T14:10:50;17.27;;;9.57;;
53253;SDS011;39148;53.332;6.922;2022-12-11T14:13:27;18.92;;;9.60;;
53253;SDS011;39148;53.332;6.922;2022-12-11T14:15:56;18.42;;;10.45;;
53253;SDS011;39148;53.332;6.922;2022-12-11T14:18:23;17.30;;;9.57;;
53253;SDS011;39148;53.332;6.922;2022-12-11T14:20:54;17.05;;;9.57;;
53253;SDS011;39148;53.332;6.922;2022-12-11T14:23:23;17.45;;;9.43;;
53253;SDS011;39148;53.332;6.922;2022-12-11T14:28:19;20.42;;;10.00;;
53253;SDS011;39148;53.332;6.922;2022-12-11T14:30:46;20.00;;;10.25;;
53253;SDS011;39148;53.332;6.922;2022-12-11T14:33:14;20.02;;;10.70;;
53253;SDS011;39148;53.332;6.922;2022-12-11T14:35:41;19.25;;;10.15;;
53253;SDS011;39148;53.332;6.922;2022-12-11T14:38:28;20.35;;;9.93;;
53253;SDS011;39148;53.332;6.922;2022-12-11T14:41:02;17.35;;;9.27;;
53253;SDS011;39148;53.332;6.922;2022-12-11T14:43:32;19.00;;;9.75;;
53253;SDS011;39148;53.332;6.922;2022-12-11T14:46:03;18.58;;;10.25;;
53253;SDS011;39148;53.332;6.922;2022-12-11T14:48:36;20.05;;;9.98;;
53253;SDS011;39148;53.332;6.922;2022-12-11T14:51:04;18.17;;;9.40;;
53253;SDS011;39148;53.332;6.922;2022-12-11T14:53:42;18.85;;;10.07;;
53253;SDS011;39148;53.332;6.922;2022-12-11T14:56:14;19.05;;;10.02;;
53253;SDS011;39148;53.332;6.922;2022-12-11T14:58:42;18.35;;;10.00;;
53253;SDS011;39148;53.332;6.922;2022-12-11T15:03:45;19.02;;;11.00;;
53253;SDS011;39148;53.332;6.922;2022-12-11T15:08:50;20.92;;;10.63;;
53253;SDS011;39148;53.332;6.922;2022-12-11T15:11:16;20.85;;;10.80;;
53253;SDS011;39148;53.332;6.922;2022-12-11T15:16:20;17.92;;;10.52;;
53253;SDS011;39148;53.332;6.922;2022-12-11T15:18:48;20.00;;;10.68;;
53253;SDS011;39148;53.332;6.922;2022-12-11T15:21:15;17.98;;;10.25;;
53253;SDS011;39148;53.332;6.922;2022-12-11T15:23:49;19.70;;;10.25;;
53253;SDS011;39148;53.332;6.922;2022-12-11T15:26:16;19.75;;;10.40;;
53253;SDS011;39148;53.332;6.922;2022-12-11T15:28:43;20.08;;;10.70;;
53253;SDS011;39148;53.332;6.922;2022-12-11T15:31:22;19.85;;;10.32;;
53253;SDS011;39148;53.332;6.922;2022-12-11T15:33:49;19.40;;;10.38;;
53253;SDS011;39148;53.332;6.922;2022-12-11T15:38:47;20.65;;;10.93;;
53253;SDS011;39148;53.332;6.922;2022-12-11T15:41:13;20.30;;;10.43;;
53253;SDS011;39148;53.332;6.922;2022-12-11T15:43:40;18.20;;;10.45;;
53253;SDS011;39148;53.332;6.922;2022-12-11T15:46:07;18.52;;;10.02;;
53253;SDS011;39148;53.332;6.922;2022-12-11T15:48:33;19.48;;;11.07;;
53253;SDS011;39148;53.332;6.922;2022-12-11T15:50:59;19.05;;;10.93;;
53253;SDS011;39148;53.332;6.922;2022-12-11T15:53:25;21.17;;;11.30;;
53253;SDS011;39148;53.332;6.922;2022-12-11T15:55:51;18.45;;;9.65;;
53253;SDS011;39148;53.332;6.922;2022-12-11T15:58:18;18.98;;;10.38;;
53253;SDS011;39148;53.332;6.922;2022-12-11T16:00:46;20.40;;;11.45;;
53253;SDS011;39148;53.332;6.922;2022-12-11T16:03:12;19.20;;;10.52;;
53253;SDS011;39148;53.332;6.922;2022-12-11T16:05:39;20.42;;;10.48;;
53253;SDS011;39148;53.332;6.922;2022-12-11T16:08:06;20.73;;;11.57;;
53253;SDS011;39148;53.332;6.922;2022-12-11T16:10:32;20.05;;;10.55;;
53253;SDS011;39148;53.332;6.922;2022-12-11T16:12:58;20.88;;;10.35;;
53253;SDS011;39148;53.332;6.922;2022-12-11T16:15:26;19.13;;;10.60;;
53253;SDS011;39148;53.332;6.922;2022-12-11T16:18:00;19.35;;;10.38;;
53253;SDS011;39148;53.332;6.922;2022-12-11T16:20:27;20.67;;;10.93;;
53253;SDS011;39148;53.332;6.922;2022-12-11T16:22:55;20.27;;;11.00;;
53253;SDS011;39148;53.332;6.922;2022-12-11T16:25:21;22.73;;;10.98;;
53253;SDS011;39148;53.332;6.922;2022-12-11T16:27:47;20.98;;;11.38;;
53253;SDS011;39148;53.332;6.922;2022-12-11T16:30:13;20.67;;;11.20;;
53253;SDS011;39148;53.332;6.922;2022-12-11T16:32:39;20.80;;;11.52;;